Time;durP1;ratioP1;P1;durP2;ratioP2;P2;SDS_P1;SDS_P2;PMS_P1;PMS_P2;Temp;Humidity;BMP_temperature;BMP_pressure;BME280_temperature;BME280_humidity;BME280_pressure;Samples;Min_cycle;Max_cycle;Signal;HPM_P1;HPM_P2
2023/01/03 00:01:10;;;;;;;12.25;6.28;;;6.50;99.90;;;;;;7304853;32;20584;-59
2023/01/03 00:05:11;;;;;;;11.77;6.60;;;6.50;99.90;;;;;;7305877;32;20325;-60
2023/01/03 00:09:16;;;;;;;12.30;6.65;;;6.40;99.90;;;;;;7303048;32;20214;-60
2023/01/03 00:13:18;;;;;;;11.50;6.20;;;6.40;99.90;;;;;;7297001;32;20122;-61
2023/01/03 00:17:20;;;;;;;11.93;5.40;;;6.40;99.90;;;;;;7297473;32;20198;-59
2023/01/03 00:21:22;;;;;;;14.93;5.87;;;6.40;99.90;;;;;;7297088;32;20096;-59
2023/01/03 00:25:25;;;;;;;11.00;5.95;;;6.60;99.90;;;;;;7299870;32;20108;-59
2023/01/03 00:29:26;;;;;;;11.18;5.75;;;6.70;99.90;;;;;;7298486;32;20821;-61
2023/01/03 00:33:28;;;;;;;11.43;5.10;;;6.80;99.90;;;;;;7298168;32;20107;-60
2023/01/03 00:37:30;;;;;;;7.72;5.50;;;6.90;99.90;;;;;;7299594;32;20214;-60
2023/01/03 00:41:32;;;;;;;8.85;5.15;;;6.80;99.90;;;;;;7299233;32;20319;-60
2023/01/03 00:45:33;;;;;;;9.68;5.03;;;6.80;99.90;;;;;;7297615;32;20150;-60
2023/01/03 00:49:36;;;;;;;8.35;4.47;;;6.80;99.90;;;;;;7284427;32;20732;-60
2023/01/03 00:53:39;;;;;;;9.80;4.70;;;6.80;99.90;;;;;;7299683;32;20291;-60
2023/01/03 00:57:40;;;;;;;10.02;4.57;;;6.80;99.90;;;;;;7298116;32;20240;-61
2023/01/03 01:01:51;;;;;;;9.63;5.05;;;6.70;99.90;;;;;;7296644;32;20176;-59
2023/01/03 01:05:53;;;;;;;8.75;4.10;;;6.70;99.90;;;;;;7293857;32;20100;-60
2023/01/03 01:09:55;;;;;;;8.60;3.83;;;6.60;99.90;;;;;;7306042;32;20256;-60
2023/01/03 01:13:57;;;;;;;10.38;4.25;;;6.60;99.90;;;;;;7296325;32;20219;-60
2023/01/03 01:17:58;;;;;;;8.23;4.20;;;6.50;99.90;;;;;;7301429;32;20126;-59
2023/01/03 01:22:00;;;;;;;12.00;4.28;;;6.50;99.90;;;;;;7295976;32;20114;-59
2023/01/03 01:26:03;;;;;;;8.93;4.50;;;6.30;99.90;;;;;;7298764;32;20150;-59
2023/01/03 01:30:05;;;;;;;14.15;4.53;;;6.10;99.90;;;;;;7297524;32;20277;-60
2023/01/03 01:34:08;;;;;;;7.22;3.78;;;6.10;99.90;;;;;;7294203;32;20202;-60
2023/01/03 01:38:09;;;;;;;10.02;3.80;;;6.00;99.90;;;;;;7299757;32;20211;-59
2023/01/03 01:46:33;;;;;;;8.07;4.15;;;6.00;99.90;;;;;;7293966;32;20852;-58
2023/01/03 01:50:44;;;;;;;8.20;4.32;;;5.90;99.90;;;;;;7296365;32;20183;-58
2023/01/03 01:54:48;;;;;;;12.75;4.45;;;6.00;99.90;;;;;;7303248;32;20202;-59
2023/01/03 01:58:51;;;;;;;8.02;4.07;;;6.10;99.90;;;;;;7299730;32;20188;-59
2023/01/03 02:02:54;;;;;;;12.20;3.87;;;6.30;99.90;;;;;;7298762;32;20224;-60
2023/01/03 02:06:57;;;;;;;7.65;3.87;;;6.30;99.90;;;;;;7298866;32;20266;-60
2023/01/03 02:11:01;;;;;;;8.90;3.40;;;6.20;99.90;;;;;;7300201;32;20222;-59
2023/01/03 02:15:34;;;;;;;9.60;3.55;;;6.10;99.90;;;;;;7296432;32;20095;-59
2023/01/03 02:20:00;;;;;;;6.65;4.12;;;6.00;99.90;;;;;;7303209;32;20261;-59
2023/01/03 02:24:29;;;;;;;6.25;3.60;;;5.90;99.90;;;;;;7301521;32;20224;-59
2023/01/03 02:29:09;;;;;;;9.30;3.35;;;5.80;99.90;;;;;;7300067;32;20120;-61
2023/01/03 02:33:31;;;;;;;11.05;3.95;;;5.70;99.90;;;;;;7300798;32;20092;-59
2023/01/03 02:37:52;;;;;;;11.50;4.10;;;5.60;99.90;;;;;;7298195;32;20517;-59
2023/01/03 02:46:39;;;;;;;10.93;5.10;;;5.30;99.90;;;;;;7298229;32;20238;-59
2023/01/03 02:50:46;;;;;;;8.88;4.32;;;5.10;99.90;;;;;;7298178;32;20316;-60
2023/01/03 02:55:00;;;;;;;6.87;4.32;;;5.00;99.90;;;;;;7300605;32;20135;-59
2023/01/03 02:59:15;;;;;;;11.38;6.07;;;4.90;99.90;;;;;;7300006;32;20220;-59
2023/01/03 03:03:23;;;;;;;12.20;5.12;;;4.80;99.90;;;;;;7302780;32;20338;-59
2023/01/03 03:07:30;;;;;;;10.40;4.53;;;4.70;99.90;;;;;;7306973;32;20128;-59
2023/01/03 03:16:14;;;;;;;9.10;5.00;;;4.50;99.90;;;;;;7309540;32;20351;-59
2023/01/03 03:24:49;;;;;;;8.35;5.15;;;4.30;99.90;;;;;;7298235;32;20104;-60
2023/01/03 03:28:57;;;;;;;8.70;4.90;;;4.20;99.90;;;;;;7301415;32;20545;-59
2023/01/03 03:33:04;;;;;;;11.20;6.28;;;4.10;99.90;;;;;;7299089;32;20535;-59
2023/01/03 03:37:09;;;;;;;;;;;4.10;99.90;;;;;;7297262;32;20210;-60
2023/01/03 03:46:04;;;;;;;13.77;5.70;;;3.90;99.90;;;;;;7295902;32;20104;-59
2023/01/03 03:50:24;;;;;;;9.02;4.87;;;3.80;99.90;;;;;;7291299;32;20216;-61
2023/01/03 03:54:28;;;;;;;11.82;5.28;;;3.70;99.90;;;;;;7290304;32;20119;-59
2023/01/03 03:58:33;;;;;;;10.70;4.78;;;3.50;99.90;;;;;;7296942;32;20118;-59
2023/01/03 04:02:36;;;;;;;13.32;5.35;;;3.40;99.90;;;;;;7296340;32;20501;-59
2023/01/03 04:06:43;;;;;;;8.73;4.62;;;3.30;99.90;;;;;;7298453;32;20100;-59
2023/01/03 04:10:45;;;;;;;8.02;4.62;;;3.20;99.90;;;;;;7300709;32;20408;-59
2023/01/03 04:14:46;;;;;;;12.23;5.07;;;3.10;99.90;;;;;;7297053;32;20166;-59
2023/01/03 04:18:48;;;;;;;8.18;5.07;;;3.10;99.90;;;;;;7294435;32;20107;-59
2023/01/03 04:22:50;;;;;;;7.90;4.40;;;3.00;99.90;;;;;;7295904;32;20545;-59
2023/01/03 04:26:51;;;;;;;10.85;4.78;;;2.80;99.90;;;;;;7296071;32;20663;-59
2023/01/03 04:30:53;;;;;;;6.75;3.97;;;2.80;99.90;;;;;;7298995;32;20100;-59
2023/01/03 04:34:55;;;;;;;8.48;4.25;;;2.70;99.90;;;;;;7302584;32;20096;-59
2023/01/03 04:38:57;;;;;;;8.07;4.75;;;2.60;99.90;;;;;;7297569;32;20108;-60
2023/01/03 04:47:19;;;;;;;8.00;4.32;;;2.40;99.90;;;;;;7293902;32;20600;-59
2023/01/03 04:51:21;;;;;;;8.93;4.50;;;2.40;99.90;;;;;;7295883;32;20200;-59
2023/01/03 04:55:23;;;;;;;9.30;4.55;;;2.30;99.90;;;;;;7296167;32;20626;-59
2023/01/03 04:59:24;;;;;;;8.95;5.25;;;2.20;99.90;;;;;;7296202;32;20108;-59
2023/01/03 05:03:27;;;;;;;14.90;5.70;;;2.10;99.90;;;;;;7297383;32;20761;-59
2023/01/03 05:07:29;;;;;;;10.45;5.30;;;2.10;99.90;;;;;;7294023;32;20492;-58
2023/01/03 05:11:30;;;;;;;11.07;4.87;;;2.00;99.90;;;;;;7295873;32;20663;-60
2023/01/03 05:15:36;;;;;;;7.72;4.85;;;2.00;99.90;;;;;;7297106;32;20151;-59
2023/01/03 05:25:48;;;;;;;13.45;5.45;;;1.90;99.90;;;;;;7292619;32;20420;-59
2023/01/03 05:28:22;;;;;;;10.23;5.75;;;1.90;99.90;;;;;;7301633;32;20661;-59
2023/01/03 05:32:24;;;;;;;11.60;6.32;;;1.90;99.90;;;;;;7287566;32;20217;-59
2023/01/03 05:36:25;;;;;;;8.68;6.03;;;2.00;99.90;;;;;;7299523;32;20555;-61
2023/01/03 05:40:27;;;;;;;12.27;6.05;;;2.10;99.90;;;;;;7304092;32;20112;-60
2023/01/03 05:44:32;;;;;;;12.30;6.28;;;2.20;99.90;;;;;;7304854;32;20157;-59
2023/01/03 05:48:35;;;;;;;10.27;6.05;;;2.30;99.90;;;;;;7302861;32;20151;-59
2023/01/03 05:52:36;;;;;;;14.23;5.70;;;2.30;99.90;;;;;;7303165;32;20107;-59
2023/01/03 05:56:38;;;;;;;12.10;6.00;;;2.30;99.90;;;;;;7303006;32;20179;-59
2023/01/03 06:00:40;;;;;;;10.90;5.15;;;2.20;99.90;;;;;;7303112;32;20188;-59
2023/01/03 06:04:41;;;;;;;13.70;6.00;;;2.20;99.90;;;;;;7303022;32;20219;-58
2023/01/03 06:08:43;;;;;;;12.80;5.82;;;2.10;99.90;;;;;;7303924;32;20125;-59
2023/01/03 06:12:45;;;;;;;9.75;5.28;;;2.10;99.90;;;;;;7286031;32;20573;-59
2023/01/03 06:21:07;;;;;;;12.30;5.78;;;2.00;99.90;;;;;;7306275;32;20187;-59
2023/01/03 06:25:09;;;;;;;12.75;6.53;;;2.10;99.90;;;;;;7293123;32;20096;-58
2023/01/03 06:29:11;;;;;;;13.15;6.22;;;2.00;99.90;;;;;;7298236;32;20108;-59
2023/01/03 06:33:13;;;;;;;11.20;5.50;;;2.00;99.90;;;;;;7301053;32;20143;-59
2023/01/03 06:37:14;;;;;;;13.35;6.00;;;2.10;99.90;;;;;;7301361;32;20250;-59
2023/01/03 06:41:16;;;;;;;12.30;6.62;;;2.10;99.90;;;;;;7298804;32;20107;-60
2023/01/03 06:53:59;;;;;;;11.60;7.07;;;2.60;99.90;;;;;;7301463;32;20215;-59
2023/01/03 06:58:00;;;;;;;14.52;6.97;;;2.80;99.90;;;;;;7298968;32;20495;-58
2023/01/03 07:02:05;;;;;;;15.68;8.18;;;2.90;99.90;;;;;;7296861;32;20179;-59
2023/01/03 07:06:07;;;;;;;15.75;8.75;;;3.10;99.90;;;;;;7300573;32;20210;-59
2023/01/03 07:10:09;;;;;;;16.23;10.18;;;3.30;99.90;;;;;;7296188;32;20131;-59
2023/01/03 07:14:11;;;;;;;20.30;10.43;;;3.40;99.90;;;;;;7301097;32;20099;-59
2023/01/03 07:18:13;;;;;;;14.57;9.25;;;3.50;99.90;;;;;;7298895;32;20428;-58
2023/01/03 07:22:15;;;;;;;15.15;9.35;;;3.60;99.90;;;;;;7301143;32;20597;-59
2023/01/03 07:26:16;;;;;;;13.32;9.05;;;3.80;99.90;;;;;;7299632;32;20220;-59
2023/01/03 07:30:18;;;;;;;15.75;9.30;;;4.10;99.90;;;;;;7290866;32;20687;-58
2023/01/03 07:34:20;;;;;;;21.08;8.68;;;4.40;99.90;;;;;;7304366;32;20118;-59
2023/01/03 07:38:22;;;;;;;19.77;8.93;;;4.70;99.90;;;;;;7292706;32;20170;-59
2023/01/03 07:46:44;;;;;;;13.77;7.60;;;4.90;99.90;;;;;;7302084;32;20635;-61
2023/01/03 07:50:45;;;;;;;14.10;7.90;;;5.00;99.90;;;;;;7288969;32;20258;-60
2023/01/03 07:54:47;;;;;;;17.20;7.20;;;5.20;99.90;;;;;;7300012;32;20100;-59
2023/01/03 07:58:50;;;;;;;12.68;6.57;;;5.30;99.90;;;;;;7299911;32;20108;-60
2023/01/03 08:02:53;;;;;;;15.52;6.05;;;5.40;99.90;;;;;;7300698;32;20245;-60
2023/01/03 08:06:56;;;;;;;9.52;6.00;;;5.60;99.90;;;;;;7301740;32;20108;-60
2023/01/03 08:15:19;;;;;;;7.15;4.60;;;5.80;99.90;;;;;;7301898;32;20137;-61
2023/01/03 08:19:22;;;;;;;11.00;4.85;;;5.90;99.90;;;;;;7306065;32;20474;-60
2023/01/03 08:23:24;;;;;;;10.88;4.85;;;6.00;99.90;;;;;;7303060;32;20119;-60
2023/01/03 08:27:26;;;;;;;12.90;4.97;;;6.10;99.90;;;;;;7302155;32;20122;-60
2023/01/03 08:31:31;;;;;;;8.20;4.70;;;6.20;99.90;;;;;;7297608;32;20120;-60
2023/01/03 08:35:34;;;;;;;13.32;4.93;;;6.20;99.90;;;;;;7303897;32;20191;-61
2023/01/03 08:39:41;;;;;;;8.38;4.20;;;6.30;99.90;;;;;;7298979;32;20207;-61
2023/01/03 08:43:44;;;;;;;;;;;6.40;99.90;;;;;;7299493;32;20187;-60
2023/01/03 08:47:46;;;;;;;11.50;4.35;;;6.50;99.90;;;;;;7301596;32;20011;-60
2023/01/03 08:51:47;;;;;;;8.15;4.70;;;6.60;99.90;;;;;;7301276;32;20554;-60
2023/01/03 08:55:49;;;;;;;7.15;4.68;;;6.60;99.90;;;;;;7301771;32;20154;-60
2023/01/03 08:59:51;;;;;;;9.90;4.65;;;6.70;99.90;;;;;;7295913;32;20100;-60
2023/01/03 09:03:52;;;;;;;8.88;4.25;;;6.70;99.90;;;;;;7293919;32;20828;-59
2023/01/03 09:07:55;;;;;;;6.87;4.75;;;6.70;99.90;;;;;;7304101;32;20577;-61
2023/01/03 09:11:56;;;;;;;5.57;4.07;;;6.80;99.90;;;;;;7305543;32;20251;-62
2023/01/03 09:16:07;;;;;;;7.97;4.32;;;6.90;99.90;;;;;;7300827;32;20211;-61
2023/01/03 09:20:13;;;;;;;5.72;4.25;;;7.00;99.90;;;;;;7301221;32;20104;-61
2023/01/03 09:24:14;;;;;;;6.22;4.25;;;7.10;99.90;;;;;;7302411;32;20121;-61
2023/01/03 09:28:16;;;;;;;7.47;3.80;;;7.10;99.90;;;;;;7303823;32;20096;-62
2023/01/03 09:32:18;;;;;;;9.63;3.78;;;7.20;99.90;;;;;;7302351;32;20249;-61
2023/01/03 09:36:20;;;;;;;7.28;3.83;;;7.50;99.90;;;;;;7304004;32;20493;-62
2023/01/03 09:40:22;;;;;;;10.52;4.30;;;7.50;99.90;;;;;;7301565;32;21273;-61
2023/01/03 09:44:24;;;;;;;8.35;3.90;;;7.50;99.90;;;;;;7288521;32;20206;-60
2023/01/03 09:48:33;;;;;;;7.07;4.00;;;7.60;99.90;;;;;;7287094;32;20182;-61
2023/01/03 10:06:31;;;;;;;6.62;3.83;;;7.70;99.90;;;;;;7307294;32;20122;-60
2023/01/03 10:10:58;;;;;;;6.10;3.33;;;7.90;99.90;;;;;;7279427;32;20207;-60
2023/01/03 10:15:36;;;;;;;6.20;3.45;;;7.90;99.90;;;;;;7298344;32;20427;-60
2023/01/03 10:19:47;;;;;;;;;;;7.90;99.90;;;;;;7282697;32;20195;-60
2023/01/03 10:23:49;;;;;;;7.03;3.50;;;7.80;99.90;;;;;;7297150;32;20126;-61
2023/01/03 10:27:55;;;;;;;8.43;3.50;;;7.80;99.90;;;;;;7300034;32;20114;-60
2023/01/03 10:32:30;;;;;;;5.95;3.90;;;7.80;99.90;;;;;;7300980;32;20130;-61
2023/01/03 10:36:32;;;;;;;6.32;3.75;;;7.80;99.90;;;;;;7297660;32;21469;-62
2023/01/03 10:41:02;;;;;;;5.10;3.25;;;7.90;99.90;;;;;;7296333;32;20100;-61
2023/01/03 10:45:33;;;;;;;4.80;2.95;;;8.20;99.90;;;;;;7300513;32;20115;-59
2023/01/03 10:49:46;;;;;;;7.15;2.83;;;8.50;99.90;;;;;;7284371;32;20200;-61
2023/01/03 10:53:50;;;;;;;4.47;2.85;;;8.70;99.90;;;;;;7303295;32;20226;-60
2023/01/03 10:57:57;;;;;;;9.07;3.12;;;8.90;99.90;;;;;;7305504;32;20199;-61
2023/01/03 11:02:02;;;;;;;4.18;2.20;;;9.00;99.90;;;;;;7281353;32;20249;-62
2023/01/03 11:06:04;;;;;;;3.83;2.10;;;9.00;99.90;;;;;;7294038;32;20088;-61
2023/01/03 11:10:15;;;;;;;6.82;2.60;;;9.10;99.90;;;;;;7300712;32;20215;-60
2023/01/03 11:14:28;;;;;;;8.23;3.28;;;9.00;99.90;;;;;;7297574;32;20765;-61
2023/01/03 11:18:30;;;;;;;6.80;2.65;;;9.00;99.90;;;;;;7295426;32;20115;-60
2023/01/03 11:22:51;;;;;;;5.35;2.55;;;8.90;99.90;;;;;;7296517;32;20159;-60
2023/01/03 11:27:08;;;;;;;6.82;2.90;;;8.90;99.90;;;;;;7285533;32;20907;-58
2023/01/03 11:31:25;;;;;;;6.75;2.80;;;8.80;99.90;;;;;;7285765;32;20096;-60
2023/01/03 11:35:26;;;;;;;6.50;2.00;;;8.80;99.90;;;;;;7298152;32;20235;-60
2023/01/03 11:39:34;;;;;;;5.15;2.35;;;8.80;99.90;;;;;;7292174;32;20220;-60
2023/01/03 11:44:02;;;;;;;5.80;2.10;;;8.80;99.90;;;;;;7301419;32;20824;-60
2023/01/03 11:48:21;;;;;;;4.00;1.85;;;8.80;99.90;;;;;;7299720;32;20100;-60
2023/01/03 11:52:46;;;;;;;4.53;1.60;;;8.90;99.90;;;;;;7296853;32;20104;-61
2023/01/03 11:56:49;;;;;;;7.87;1.80;;;8.70;99.90;;;;;;7292020;32;20219;-60
2023/01/03 12:01:30;;;;;;;6.05;1.67;;;8.90;99.90;;;;;;7298205;32;20122;-60
2023/01/03 12:05:50;;;;;;;10.05;1.83;;;8.90;99.90;;;;;;7270010;32;20236;-61
2023/01/03 12:10:17;;;;;;;6.18;1.58;;;9.00;99.90;;;;;;7281208;32;20209;-61
2023/01/03 12:14:31;;;;;;;6.28;1.30;;;9.20;99.90;;;;;;7292487;32;20178;-60
2023/01/03 12:18:55;;;;;;;6.87;2.12;;;9.30;99.90;;;;;;7268044;32;20215;-60
2023/01/03 12:23:14;;;;;;;4.65;1.20;;;9.50;99.90;;;;;;7300108;32;20366;-63
2023/01/03 12:27:29;;;;;;;5.30;0.90;;;9.60;99.90;;;;;;7301407;32;20126;-60
2023/01/03 12:31:42;;;;;;;7.10;1.05;;;9.60;99.90;;;;;;7306846;32;20126;-60
2023/01/03 12:36:10;;;;;;;3.62;1.00;;;9.70;99.90;;;;;;7295321;32;20104;-60
2023/01/03 12:40:38;;;;;;;4.80;0.73;;;9.80;99.90;;;;;;7292532;32;20108;-60
2023/01/03 12:44:41;;;;;;;;;;;9.80;99.90;;;;;;7279692;32;20112;-60
2023/01/03 12:49:23;;;;;;;6.37;1.00;;;9.90;99.90;;;;;;7294037;32;20134;-60
2023/01/03 12:53:34;;;;;;;3.00;0.68;;;10.00;99.90;;;;;;7293375;32;20211;-60
2023/01/03 12:57:48;;;;;;;6.45;1.42;;;10.10;99.90;;;;;;7294173;32;20200;-60
2023/01/03 13:02:12;;;;;;;4.40;0.93;;;9.90;99.90;;;;;;7295921;32;20131;-60
2023/01/03 13:06:38;;;;;;;3.33;0.50;;;9.70;99.90;;;;;;7282172;32;20206;-61
2023/01/03 13:10:45;;;;;;;3.00;0.57;;;9.70;99.90;;;;;;7291131;32;20126;-59
2023/01/03 13:15:01;;;;;;;5.20;0.95;;;9.60;99.90;;;;;;7292480;32;20118;-60
2023/01/03 13:19:21;;;;;;;3.62;0.80;;;9.50;99.90;;;;;;7282762;32;20177;-61
2023/01/03 13:23:34;;;;;;;5.87;0.70;;;9.60;99.90;;;;;;7265741;32;20137;-61
2023/01/03 13:27:46;;;;;;;8.57;0.80;;;9.70;99.90;;;;;;7295885;32;20210;-62
2023/01/03 13:32:14;;;;;;;3.15;0.50;;;9.80;99.90;;;;;;7296027;32;20321;-61
2023/01/03 13:36:16;;;;;;;;;;;10.00;99.90;;;;;;7294461;32;20510;-62
2023/01/03 13:40:18;;;;;;;2.08;0.40;;;10.00;99.90;;;;;;7293972;32;20097;-61
2023/01/03 13:44:23;;;;;;;2.22;0.62;;;9.90;99.90;;;;;;7309414;32;20652;-60
2023/01/03 13:48:36;;;;;;;3.37;0.65;;;9.90;99.90;;;;;;7306887;32;20216;-60
2023/01/03 13:53:03;;;;;;;2.78;0.60;;;9.90;99.90;;;;;;7302835;32;20334;-59
2023/01/03 13:57:35;;;;;;;2.50;0.60;;;9.90;99.90;;;;;;7296912;32;22025;-61
2023/01/03 14:01:39;;;;;;;4.12;0.85;;;9.90;99.90;;;;;;7296980;32;20126;-62
2023/01/03 14:05:56;;;;;;;2.75;0.50;;;9.80;99.90;;;;;;7305214;32;20165;-61
2023/01/03 14:10:27;;;;;;;3.92;0.55;;;9.80;99.90;;;;;;7294374;32;20273;-61
2023/01/03 14:14:32;;;;;;;2.60;0.60;;;9.80;99.90;;;;;;7308503;32;20668;-61
2023/01/03 14:18:35;;;;;;;1.37;0.70;;;10.00;99.90;;;;;;7305107;32;20092;-61
2023/01/03 14:22:47;;;;;;;1.37;0.45;;;10.10;99.90;;;;;;7291502;32;20580;-60
2023/01/03 14:26:49;;;;;;;1.83;0.40;;;10.00;99.90;;;;;;7289234;32;20213;-59
2023/01/03 14:30:54;;;;;;;4.12;0.70;;;9.80;99.90;;;;;;7302593;32;20565;-60
2023/01/03 14:34:56;;;;;;;3.80;0.60;;;9.70;99.90;;;;;;7298762;32;20131;-60
2023/01/03 14:39:00;;;;;;;3.20;0.70;;;9.60;99.90;;;;;;7298024;32;20183;-61
2023/01/03 14:43:04;;;;;;;2.70;0.50;;;9.50;99.90;;;;;;7297366;32;20225;-60
2023/01/03 14:47:16;;;;;;;2.92;0.60;;;9.50;99.90;;;;;;7300332;32;20290;-61
2023/01/03 14:51:18;;;;;;;3.20;0.40;;;9.50;99.90;;;;;;7284015;32;20137;-60
2023/01/03 14:55:20;;;;;;;1.95;0.30;;;9.50;99.90;;;;;;7297725;32;20286;-60
2023/01/03 14:59:22;;;;;;;3.62;0.60;;;9.40;99.90;;;;;;7293933;32;20117;-60
2023/01/03 15:03:24;;;;;;;1.92;0.50;;;9.40;99.90;;;;;;7297916;32;20125;-60
2023/01/03 15:07:31;;;;;;;2.83;0.52;;;9.30;99.90;;;;;;7295957;32;20269;-60
2023/01/03 15:11:55;;;;;;;2.90;0.50;;;9.30;99.90;;;;;;7298376;32;20147;-60
2023/01/03 15:16:01;;;;;;;1.33;0.50;;;9.20;99.90;;;;;;7294423;32;20126;-59
2023/01/03 15:20:07;;;;;;;4.00;0.60;;;9.10;99.90;;;;;;7292213;32;20131;-59
2023/01/03 15:24:17;;;;;;;3.42;0.55;;;8.90;99.90;;;;;;7294216;32;20401;-60
2023/01/03 15:28:30;;;;;;;2.78;0.40;;;8.80;99.90;;;;;;7294078;32;20219;-59
2023/01/03 15:32:44;;;;;;;2.95;0.50;;;8.70;99.90;;;;;;7294434;32;20123;-60
2023/01/03 15:37:03;;;;;;;1.87;0.60;;;8.50;99.90;;;;;;7299927;32;20426;-59
2023/01/03 15:46:15;;;;;;;2.65;0.65;;;8.20;99.90;;;;;;7298287;32;20422;-61
2023/01/03 15:50:18;;;;;;;2.22;0.85;;;8.20;99.90;;;;;;7300738;32;20128;-58
2023/01/03 15:54:20;;;;;;;4.25;0.80;;;8.10;99.90;;;;;;7299753;32;20588;-59
2023/01/03 15:58:24;;;;;;;2.45;0.80;;;8.00;99.90;;;;;;7303533;32;20311;-59
2023/01/03 16:02:28;;;;;;;3.87;0.70;;;7.90;99.90;;;;;;7303908;32;20239;-59
2023/01/03 16:06:31;;;;;;;6.68;0.85;;;7.90;99.90;;;;;;7304267;32;20232;-58
2023/01/03 16:10:33;;;;;;;2.55;0.80;;;7.80;99.90;;;;;;7289474;32;20778;-60
2023/01/03 16:14:38;;;;;;;4.20;0.73;;;7.70;99.90;;;;;;7305034;32;20183;-59
2023/01/03 16:18:45;;;;;;;4.05;0.80;;;7.70;99.90;;;;;;7304755;32;20206;-60
2023/01/03 16:22:51;;;;;;;4.00;0.90;;;7.60;99.90;;;;;;7303849;32;20890;-59
2023/01/03 16:27:19;;;;;;;4.75;0.93;;;7.60;99.90;;;;;;7304968;32;20175;-59
2023/01/03 16:31:30;;;;;;;4.18;0.90;;;7.40;99.90;;;;;;7304154;32;20104;-59
2023/01/03 16:35:32;;;;;;;6.72;1.70;;;7.20;99.90;;;;;;7296504;32;20247;-59
2023/01/03 16:39:34;;;;;;;7.25;2.78;;;7.30;99.90;;;;;;7299487;32;20130;-59
2023/01/03 16:43:35;;;;;;;3.95;1.58;;;7.30;99.90;;;;;;7300895;32;20580;-59
2023/01/03 16:47:38;;;;;;;8.95;2.35;;;7.20;99.90;;;;;;7300484;32;20180;-60
2023/01/03 16:51:42;;;;;;;4.07;1.65;;;7.20;99.90;;;;;;7302407;32;20104;-59
2023/01/03 16:55:54;;;;;;;6.18;2.25;;;7.40;99.90;;;;;;7285846;32;20130;-59
2023/01/03 16:59:55;;;;;;;8.52;2.17;;;7.40;99.90;;;;;;7302678;32;20120;-58
2023/01/03 17:03:57;;;;;;;7.00;1.60;;;7.40;99.90;;;;;;7302751;32;20257;-59
2023/01/03 17:08:07;;;;;;;4.70;1.58;;;7.40;99.90;;;;;;7299399;32;20268;-59
2023/01/03 17:12:14;;;;;;;5.05;1.10;;;7.30;99.90;;;;;;7299454;32;20174;-59
2023/01/03 17:16:18;;;;;;;3.97;1.02;;;7.40;99.90;;;;;;7303729;32;20888;-59
2023/01/03 17:20:21;;;;;;;4.72;1.17;;;7.20;99.90;;;;;;7300382;32;20561;-59
2023/01/03 17:24:24;;;;;;;6.37;1.02;;;7.10;99.90;;;;;;7303212;32;20204;-59
2023/01/03 17:28:26;;;;;;;6.53;1.20;;;7.10;99.90;;;;;;7305558;32;20211;-59
2023/01/03 17:32:28;;;;;;;4.72;0.90;;;7.20;99.90;;;;;;7302867;32;20292;-59
2023/01/03 17:36:32;;;;;;;3.33;1.23;;;7.20;99.90;;;;;;7303936;32;20203;-59
2023/01/03 17:40:34;;;;;;;8.60;1.10;;;7.10;99.90;;;;;;7297745;32;20525;-58
2023/01/03 17:44:36;;;;;;;10.07;1.33;;;7.00;99.90;;;;;;7303314;32;20221;-59
2023/01/03 17:53:00;;;;;;;2.85;1.02;;;7.10;99.90;;;;;;7296167;32;20124;-58
2023/01/03 17:57:02;;;;;;;4.93;1.15;;;7.10;99.90;;;;;;7302586;32;20614;-58
2023/01/03 18:01:06;;;;;;;5.40;0.90;;;7.30;99.90;;;;;;7299371;32;20112;-58
2023/01/03 18:05:13;;;;;;;6.70;1.05;;;7.40;99.90;;;;;;7301614;32;20156;-59
2023/01/03 18:09:25;;;;;;;3.97;1.00;;;7.50;99.90;;;;;;7302443;32;20169;-59
2023/01/03 18:13:34;;;;;;;6.07;1.30;;;7.50;99.90;;;;;;7302562;32;20133;-59
2023/01/03 18:17:36;;;;;;;8.63;1.15;;;7.50;99.90;;;;;;7304154;32;20513;-59
2023/01/03 18:21:38;;;;;;;5.82;1.50;;;7.60;99.90;;;;;;7299569;32;20519;-59
2023/01/03 18:25:40;;;;;;;4.75;0.93;;;7.60;99.90;;;;;;7304156;32;20242;-60
2023/01/03 18:29:42;;;;;;;5.85;1.10;;;7.70;99.90;;;;;;7306296;32;20353;-59
2023/01/03 18:33:44;;;;;;;3.33;0.77;;;7.70;99.90;;;;;;7308603;32;20116;-60
2023/01/03 18:37:49;;;;;;;6.68;1.17;;;7.60;99.90;;;;;;7291545;32;20401;-60
2023/01/03 18:41:52;;;;;;;6.90;1.50;;;7.60;99.90;;;;;;7300656;32;20269;-61
2023/01/03 18:45:53;;;;;;;3.58;1.02;;;7.50;99.90;;;;;;7302893;32;20111;-60
2023/01/03 18:49:55;;;;;;;5.40;1.62;;;7.50;99.90;;;;;;7303741;32;20515;-60
2023/01/03 18:53:58;;;;;;;6.87;1.10;;;7.50;99.90;;;;;;7294944;32;20131;-59
2023/01/03 18:58:06;;;;;;;5.62;1.30;;;7.80;99.90;;;;;;7293326;32;20199;-59
2023/01/03 19:02:16;;;;;;;5.20;1.10;;;7.80;99.90;;;;;;7298485;32;20126;-59
2023/01/03 19:06:22;;;;;;;4.00;0.95;;;7.70;99.90;;;;;;7295507;32;20837;-59
2023/01/03 19:10:25;;;;;;;5.85;1.12;;;7.60;99.90;;;;;;7294567;32;20105;-59
2023/01/03 19:14:27;;;;;;;6.35;1.25;;;7.60;99.90;;;;;;7297282;32;20122;-60
2023/01/03 19:18:28;;;;;;;7.12;1.35;;;7.50;99.90;;;;;;7295675;32;20235;-59
2023/01/03 19:22:32;;;;;;;6.68;1.20;;;7.50;99.90;;;;;;7288401;32;20108;-59
2023/01/03 19:26:42;;;;;;;4.93;1.30;;;7.40;99.90;;;;;;7301021;32;20135;-60
2023/01/03 19:30:45;;;;;;;8.15;1.62;;;7.50;99.90;;;;;;7298972;32;20199;-58
2023/01/03 19:34:47;;;;;;;4.93;1.15;;;7.40;99.90;;;;;;7309415;32;20184;-58
2023/01/03 19:38:49;;;;;;;3.95;1.52;;;7.40;99.90;;;;;;7305725;32;20163;-59
2023/01/03 19:42:53;;;;;;;4.55;1.60;;;7.40;99.90;;;;;;7307172;32;20194;-58
2023/01/03 19:46:55;;;;;;;6.30;1.30;;;7.40;99.90;;;;;;7303803;32;20120;-58
2023/01/03 19:50:57;;;;;;;6.97;1.35;;;7.30;99.90;;;;;;7291918;32;20239;-59
2023/01/03 19:54:58;;;;;;;7.37;1.50;;;7.30;99.90;;;;;;7301165;32;20262;-58
2023/01/03 19:59:00;;;;;;;6.62;1.48;;;7.30;99.90;;;;;;7303854;32;20256;-58
2023/01/03 20:03:08;;;;;;;6.05;1.15;;;7.40;99.90;;;;;;7300573;32;20108;-58
2023/01/03 20:07:13;;;;;;;4.57;1.20;;;7.30;99.90;;;;;;7300191;32;20351;-58
2023/01/03 20:11:18;;;;;;;8.63;1.77;;;7.30;99.90;;;;;;7304234;32;20135;-58
2023/01/03 20:15:28;;;;;;;4.65;1.20;;;7.30;99.90;;;;;;7296724;32;20320;-60
2023/01/03 20:19:30;;;;;;;5.50;1.33;;;7.30;99.90;;;;;;7304621;32;21658;-59
2023/01/03 20:23:38;;;;;;;7.93;1.20;;;7.20;99.90;;;;;;7296098;32;20218;-59
2023/01/03 20:27:42;;;;;;;6.00;1.33;;;7.30;99.90;;;;;;7300631;32;20142;-59
2023/01/03 20:31:45;;;;;;;2.97;1.10;;;7.10;99.90;;;;;;7301547;32;20126;-59
2023/01/03 20:35:50;;;;;;;5.53;1.12;;;7.10;99.90;;;;;;7294744;32;20588;-59
2023/01/03 20:40:20;;;;;;;5.05;1.23;;;7.10;99.90;;;;;;7296975;32;20096;-59
2023/01/03 20:44:22;;;;;;;3.58;1.30;;;7.10;99.90;;;;;;7303747;32;20116;-59
2023/01/03 20:48:24;;;;;;;6.00;2.10;;;7.00;99.90;;;;;;7297193;32;20107;-59
2023/01/03 20:52:27;;;;;;;5.35;1.67;;;6.90;99.90;;;;;;7303699;32;20186;-60
2023/01/03 20:56:31;;;;;;;5.32;1.30;;;6.90;99.90;;;;;;7306221;32;20362;-60
2023/01/03 21:00:34;;;;;;;5.22;1.50;;;6.80;99.90;;;;;;7296724;32;20223;-59
2023/01/03 21:04:37;;;;;;;4.45;1.75;;;6.80;99.90;;;;;;7303492;32;20658;-60
2023/01/03 21:08:53;;;;;;;5.93;1.70;;;6.90;99.90;;;;;;7300896;32;20134;-60
2023/01/03 21:12:55;;;;;;;4.68;1.48;;;6.80;99.90;;;;;;7299059;32;20149;-61
2023/01/03 21:16:57;;;;;;;8.15;1.75;;;6.80;99.90;;;;;;7297440;32;20116;-60
2023/01/03 21:21:04;;;;;;;6.97;1.37;;;6.70;99.90;;;;;;7298594;32;20417;-61
2023/01/03 21:25:23;;;;;;;6.72;2.12;;;6.70;99.90;;;;;;7301568;32;20866;-58
2023/01/03 21:29:26;;;;;;;4.85;1.17;;;6.70;99.90;;;;;;7301262;32;20648;-60
2023/01/03 21:33:28;;;;;;;7.47;1.60;;;6.80;99.90;;;;;;7297066;32;20126;-60
2023/01/03 21:37:30;;;;;;;9.40;1.50;;;6.70;99.90;;;;;;7301699;32;20571;-59
2023/01/03 21:42:58;;;;;;;5.45;1.30;;;6.70;99.90;;;;;;7298628;32;20125;-59
2023/01/03 21:45:57;;;;;;;6.47;1.50;;;6.70;99.90;;;;;;7300260;32;20166;-60
2023/01/03 21:49:59;;;;;;;8.75;1.50;;;6.70;99.90;;;;;;7302107;32;20140;-60
2023/01/03 21:54:01;;;;;;;8.27;1.42;;;6.70;99.90;;;;;;7290922;32;20104;-59
2023/01/03 21:58:03;;;;;;;5.25;2.00;;;6.70;99.90;;;;;;7299403;32;20147;-60
2023/01/03 22:06:25;;;;;;;7.47;1.73;;;6.70;99.90;;;;;;7310303;32;20126;-58
2023/01/03 22:10:29;;;;;;;6.60;1.50;;;6.70;99.90;;;;;;7306316;32;20258;-59
2023/01/03 22:14:30;;;;;;;5.30;1.60;;;6.80;99.90;;;;;;7305513;32;20125;-61
2023/01/03 22:18:33;;;;;;;4.37;1.20;;;6.80;99.90;;;;;;7302221;32;20190;-60
2023/01/03 22:22:34;;;;;;;6.85;1.35;;;6.80;99.90;;;;;;7298330;32;20692;-59
2023/01/03 22:26:36;;;;;;;5.07;1.30;;;6.90;99.90;;;;;;7303401;32;20770;-61
2023/01/03 22:30:38;;;;;;;5.53;1.30;;;6.90;99.90;;;;;;7282376;32;20486;-59
2023/01/03 22:34:39;;;;;;;3.50;1.30;;;7.00;99.90;;;;;;7312355;32;20183;-59
2023/01/03 22:38:42;;;;;;;11.27;2.03;;;7.00;99.90;;;;;;7310630;32;20115;-59
2023/01/03 22:42:44;;;;;;;4.87;1.48;;;7.00;99.90;;;;;;7304378;32;20337;-58
2023/01/03 22:46:45;;;;;;;5.32;1.23;;;7.00;99.90;;;;;;7296905;32;20116;-59
2023/01/03 22:50:47;;;;;;;7.45;1.30;;;7.10;99.90;;;;;;7297388;32;20705;-59
2023/01/03 22:54:49;;;;;;;6.07;1.48;;;7.10;99.90;;;;;;7281336;32;20550;-59
2023/01/03 22:58:51;;;;;;;8.57;1.30;;;7.10;99.90;;;;;;7285063;32;20213;-59